createdAt,value
2019-02-16T00:01:09.697Z,102370.31
2019-02-16T00:02:14.752Z,102376.78
2019-02-16T00:03:19.695Z,102372.50
2019-02-16T00:04:24.713Z,102373.83
2019-02-16T00:05:29.922Z,102367.67
2019-02-16T00:06:34.993Z,102359.17
2019-02-16T00:07:39.919Z,102359.17
2019-02-16T00:08:44.850Z,102371.34
2019-02-16T00:09:49.760Z,102370.48
2019-02-16T00:10:54.754Z,102368.32
2019-02-16T00:11:59.662Z,102370.48
2019-02-16T00:13:04.830Z,102367.92
2019-02-16T00:14:09.719Z,102363.55
2019-02-16T00:15:14.627Z,102367.12
2019-02-16T00:16:19.560Z,102359.66
2019-02-16T00:17:24.508Z,102351.47
2019-02-16T00:18:29.651Z,102361.45
2019-02-16T00:19:34.705Z,102358.80
2019-02-16T00:20:40.066Z,102364.56
2019-02-16T00:21:44.972Z,102361.05
2019-02-16T00:22:50.635Z,102356.68
2019-02-16T00:23:55.669Z,102361.52
2019-02-16T00:25:00.593Z,102358.96
2019-02-16T00:26:05.576Z,102358.09
2019-02-16T00:27:12.381Z,102366.52
2019-02-16T00:28:17.313Z,102358.56
2019-02-16T00:29:22.601Z,102359.95
2019-02-16T00:30:27.924Z,102343.91
2019-02-16T00:31:32.930Z,102355.61
2019-02-16T00:32:37.914Z,102361.37
2019-02-16T00:33:42.842Z,102357.39
2019-02-16T00:34:47.766Z,102357.86
2019-02-16T00:35:52.690Z,102361.83
2019-02-16T00:36:57.644Z,102364.58
2019-02-16T00:38:02.531Z,102357.55
2019-02-16T00:39:07.603Z,102357.55
2019-02-16T00:40:12.552Z,102354.09
2019-02-16T00:41:20.343Z,102354.09
2019-02-16T00:42:25.299Z,102354.20
2019-02-16T00:43:30.232Z,102359.95
2019-02-16T00:44:35.198Z,102359.09
2019-02-16T00:45:40.160Z,102356.53
2019-02-16T00:46:45.742Z,102353.89
2019-02-16T00:47:51.046Z,102353.45
2019-02-16T00:48:56.386Z,102357.43
2019-02-16T00:50:01.308Z,102358.75
2019-02-16T00:51:13.391Z,102360.08
2019-02-16T00:52:13.004Z,102358.35
2019-02-16T00:53:17.944Z,102358.35
2019-02-16T00:54:22.913Z,102355.34
2019-02-16T00:55:27.844Z,102355.80
2019-02-16T00:56:32.811Z,102355.80
2019-02-16T00:57:37.874Z,102352.75
2019-02-16T00:58:42.800Z,102354.53
2019-02-16T00:59:47.788Z,102352.84
2019-02-16T01:00:52.805Z,102355.95
2019-02-16T01:01:58.149Z,102353.30
2019-02-16T01:03:03.168Z,102342.77
2019-02-16T01:04:08.102Z,102344.09
2019-02-16T01:05:13.024Z,102340.22
2019-02-16T01:06:18.205Z,102343.33
2019-02-16T01:07:23.217Z,102343.33
2019-02-16T01:08:28.144Z,102341.60
2019-02-16T01:09:33.359Z,102341.20
2019-02-16T01:10:38.328Z,102331.16
2019-02-16T01:11:43.301Z,102329.84
2019-02-16T01:12:48.388Z,102333.41
2019-02-16T01:13:53.621Z,102333.87
2019-02-16T01:14:58.564Z,102335.69
2019-02-16T01:16:03.622Z,102329.53
2019-02-16T01:17:08.598Z,102333.56
2019-02-16T01:18:13.795Z,102333.56
2019-02-16T01:19:18.834Z,102334.52
2019-02-16T01:20:23.817Z,102332.80
2019-02-16T01:21:28.697Z,102337.69
2019-02-16T01:22:33.618Z,102331.98
2019-02-16T01:23:38.607Z,102331.98
2019-02-16T01:24:44.101Z,102334.64
2019-02-16T01:25:49.408Z,102328.97
2019-02-16T01:26:54.414Z,102330.76
2019-02-16T01:27:59.958Z,102332.55
2019-02-16T01:29:05.056Z,102334.80
2019-02-16T01:30:11.323Z,102330.05
2019-02-16T01:31:16.221Z,102330.45
2019-02-16T01:32:21.154Z,102327.41
2019-02-16T01:33:26.133Z,102330.52
2019-02-16T01:34:31.355Z,102328.73
2019-02-16T01:35:36.339Z,102325.31
2019-02-16T01:36:41.867Z,102323.58
2019-02-16T01:37:46.797Z,102320.53
2019-02-16T01:38:51.781Z,102320.08
2019-02-16T01:39:56.698Z,102325.83
2019-02-16T01:41:01.670Z,102317.98
2019-02-16T01:42:06.618Z,102329.90
2019-02-16T01:43:11.561Z,102316.72
2019-02-16T01:44:16.841Z,102319.37
2019-02-16T01:45:21.857Z,102320.28
2019-02-16T01:46:27.157Z,102318.50
2019-02-16T01:47:32.019Z,102314.16
2019-02-16T01:48:37.008Z,102315.95
2019-02-16T01:49:42.159Z,102321.30
2019-02-16T01:50:47.090Z,102319.52
2019-02-16T01:51:52.022Z,102315.14
2019-02-16T01:52:56.975Z,102323.09
2019-02-16T01:54:02.015Z,102318.75
2019-02-16T01:55:09.413Z,102320.07
2019-02-16T01:56:14.399Z,102316.56
2019-02-16T01:57:19.990Z,102316.16
2019-02-16T01:58:24.920Z,102312.28
2019-02-16T01:59:29.942Z,102315.30
2019-02-16T02:00:34.851Z,102316.72
2019-02-16T02:01:39.774Z,102314.98
2019-02-16T02:02:44.732Z,102315.45
2019-02-16T02:03:50.000Z,102319.88
2019-02-16T02:04:54.904Z,102315.91
2019-02-16T02:05:59.968Z,102319.52
2019-02-16T02:07:05.275Z,102310.31
2019-02-16T02:08:10.249Z,102312.95
2019-02-16T02:09:15.225Z,102309.91
2019-02-16T02:10:20.207Z,102302.92
2019-02-16T02:11:25.277Z,102309.08
2019-02-16T02:12:30.650Z,102304.25
2019-02-16T02:13:35.661Z,102313.11
2019-02-16T02:14:40.894Z,102304.30
2019-02-16T02:15:46.258Z,102311.37
2019-02-16T02:16:51.231Z,102305.72
2019-02-16T02:17:56.546Z,102304.39
2019-02-16T02:19:01.801Z,102303.53
2019-02-16T02:20:07.303Z,102303.99
2019-02-16T02:21:12.294Z,102299.25
2019-02-16T02:22:17.321Z,102302.73
2019-02-16T02:23:22.223Z,102303.22
2019-02-16T02:24:27.183Z,102301.03
2019-02-16T02:25:32.080Z,102307.25
2019-02-16T02:26:37.407Z,102306.94
2019-02-16T02:27:42.426Z,102299.00
2019-02-16T02:28:47.361Z,102309.19
2019-02-16T02:29:52.345Z,102306.54
2019-02-16T02:30:57.386Z,102310.11
2019-02-16T02:32:02.299Z,102307.95
2019-02-16T02:33:07.207Z,102309.34
2019-02-16T02:34:12.145Z,102309.34
2019-02-16T02:35:17.144Z,102308.94
2019-02-16T02:36:22.375Z,102309.42
2019-02-16T02:37:27.288Z,102309.48
2019-02-16T02:38:32.206Z,102309.03
2019-02-16T02:39:37.160Z,102314.78
2019-02-16T02:40:42.124Z,102311.27
2019-02-16T02:41:47.343Z,102310.95
2019-02-16T02:42:52.415Z,102307.45
2019-02-16T02:43:57.407Z,102307.05
2019-02-16T02:45:02.568Z,102312.34
2019-02-16T02:46:07.640Z,102306.22
2019-02-16T02:47:12.566Z,102309.78
2019-02-16T02:48:17.538Z,102308.00
2019-02-16T02:49:22.642Z,102309.38
2019-02-16T02:50:27.965Z,102306.27
2019-02-16T02:51:33.214Z,102308.92
2019-02-16T02:52:38.557Z,102309.01
2019-02-16T02:53:44.142Z,102306.36
2019-02-16T02:54:49.126Z,102310.33
2019-02-16T02:55:54.110Z,102307.28
2019-02-16T02:56:59.034Z,102300.27
2019-02-16T02:58:04.020Z,102300.27
2019-02-16T02:59:08.990Z,102304.33
2019-02-16T03:00:14.142Z,102304.70
2019-02-16T03:01:19.383Z,102303.00
2019-02-16T03:02:24.274Z,102302.60
2019-02-16T03:03:29.434Z,102308.35
2019-02-16T03:04:34.416Z,102303.52
2019-02-16T03:05:39.339Z,102303.16
2019-02-16T03:06:47.626Z,102302.29
2019-02-16T03:07:52.531Z,102303.20
2019-02-16T03:08:57.789Z,102303.61
2019-02-16T03:10:02.952Z,102304.53
2019-02-16T03:11:07.875Z,102298.84
2019-02-16T03:12:12.872Z,102297.98
2019-02-16T03:13:17.777Z,102294.50
2019-02-16T03:14:22.672Z,102295.42
2019-02-16T03:15:27.594Z,102298.47
2019-02-16T03:16:32.538Z,102302.03
2019-02-16T03:17:38.299Z,102295.02
2019-02-16T03:18:43.317Z,102289.36
2019-02-16T03:19:48.588Z,102294.16
2019-02-16T03:20:54.267Z,102294.65
2019-02-16T03:22:02.635Z,102289.88
2019-02-16T03:23:31.315Z,102285.91
2019-02-16T03:24:36.598Z,102289.47
2019-02-16T03:25:43.489Z,102289.56
2019-02-16T03:27:29.838Z,102288.30
2019-02-16T03:28:48.679Z,102288.30
2019-02-16T03:30:05.480Z,102283.55
2019-02-16T03:31:36.077Z,102276.54
2019-02-16T03:33:07.963Z,102277.50
2019-02-16T03:34:17.295Z,102276.69
2019-02-16T03:36:04.441Z,102278.97
2019-02-16T03:37:45.430Z,102276.32
2019-02-16T03:39:16.898Z,102286.55
2019-02-16T03:40:21.911Z,102280.55
2019-02-16T03:41:26.882Z,102289.43
2019-02-16T03:42:32.164Z,102284.66
2019-02-16T03:43:37.341Z,102291.27
2019-02-16T03:44:42.351Z,102289.58
2019-02-16T03:45:47.352Z,102293.05
2019-02-16T03:46:52.329Z,102285.98
2019-02-16T03:47:57.232Z,102285.11
2019-02-16T03:49:05.287Z,102285.06
2019-02-16T03:50:10.827Z,102283.73
2019-02-16T03:51:15.737Z,102271.84
2019-02-16T03:52:20.677Z,102275.41
2019-02-16T03:53:25.645Z,102272.30
2019-02-16T03:54:30.671Z,102270.98
2019-02-16T03:55:35.581Z,102270.11
2019-02-16T03:56:40.608Z,102269.66
2019-02-16T03:57:45.848Z,102272.30
2019-02-16T03:58:50.794Z,102271.44
2019-02-16T03:59:55.711Z,102267.87
2019-02-16T04:01:00.756Z,102265.78
2019-02-16T04:02:06.152Z,102264.83
2019-02-16T04:03:11.156Z,102265.28
2019-02-16T04:04:16.068Z,102264.83
2019-02-16T04:05:21.075Z,102263.50
2019-02-16T04:06:26.052Z,102264.83
2019-02-16T04:07:31.351Z,102263.96
2019-02-16T04:08:36.535Z,102263.50
2019-02-16T04:09:41.457Z,102263.13
2019-02-16T04:10:46.359Z,102263.13
2019-02-16T04:11:51.409Z,102264.05
2019-02-16T04:12:56.349Z,102263.19
2019-02-16T04:14:01.240Z,102268.94
2019-02-16T04:15:06.355Z,102266.38
2019-02-16T04:16:11.361Z,102267.61
2019-02-16T04:17:16.302Z,102271.27
2019-02-16T04:18:21.193Z,102262.02
2019-02-16T04:19:26.084Z,102265.58
2019-02-16T04:20:31.049Z,102263.39
2019-02-16T04:21:36.240Z,102266.90
2019-02-16T04:22:41.136Z,102268.68
2019-02-16T04:23:46.074Z,102266.03
2019-02-16T04:24:50.993Z,102264.34
2019-02-16T04:25:55.919Z,102257.73
2019-02-16T04:27:00.841Z,102265.66
2019-02-16T04:28:05.863Z,102259.05
2019-02-16T04:29:10.925Z,102264.80
2019-02-16T04:30:16.218Z,102258.65
2019-02-16T04:31:21.408Z,102251.64
2019-02-16T04:32:26.412Z,102251.64
2019-02-16T04:33:31.302Z,102256.55
2019-02-16T04:34:36.335Z,102253.45
2019-02-16T04:35:41.483Z,102252.59
2019-02-16T04:36:47.117Z,102259.20
2019-02-16T04:37:52.110Z,102254.83
2019-02-16T04:38:57.038Z,102258.02
2019-02-16T04:40:02.267Z,102260.66
2019-02-16T04:41:07.474Z,102258.02
2019-02-16T04:42:12.388Z,102254.11
2019-02-16T04:43:17.643Z,102251.93
2019-02-16T04:44:22.550Z,102261.18
2019-02-16T04:45:27.653Z,102255.03
2019-02-16T04:46:32.635Z,102259.48
2019-02-16T04:47:37.536Z,102261.27
2019-02-16T04:48:43.152Z,102257.77
2019-02-16T04:49:47.999Z,102260.41
2019-02-16T04:50:52.909Z,102259.55
2019-02-16T04:51:57.884Z,102263.97
2019-02-16T04:53:02.924Z,102255.63
2019-02-16T04:54:07.819Z,102256.95
2019-02-16T04:55:12.826Z,102257.05
2019-02-16T04:56:17.756Z,102262.79
2019-02-16T04:57:22.685Z,102261.47
2019-02-16T04:58:27.853Z,102256.64
2019-02-16T04:59:32.855Z,102256.33
2019-02-16T05:00:37.757Z,102253.69
2019-02-16T05:01:42.755Z,102252.41
2019-02-16T05:02:48.322Z,102253.36
2019-02-16T05:03:53.714Z,102253.83
2019-02-16T05:04:59.026Z,102260.03
2019-02-16T05:06:04.047Z,102250.41
2019-02-16T05:07:09.018Z,102256.16
2019-02-16T05:08:14.284Z,102250.00
2019-02-16T05:09:19.198Z,102260.63
2019-02-16T05:10:24.180Z,102258.44
2019-02-16T05:11:29.121Z,102261.95
2019-02-16T05:12:34.972Z,102254.48
2019-02-16T05:13:40.464Z,102254.48
2019-02-16T05:14:45.596Z,102260.72
2019-02-16T05:15:50.867Z,102254.11
2019-02-16T05:16:56.257Z,102261.58
2019-02-16T05:18:01.923Z,102260.72
2019-02-16T05:19:06.902Z,102260.72
2019-02-16T05:20:12.507Z,102257.67
2019-02-16T05:21:17.527Z,102257.67
2019-02-16T05:22:22.534Z,102255.94
2019-02-16T05:23:27.528Z,102252.38
2019-02-16T05:24:32.412Z,102255.94
2019-02-16T05:25:37.322Z,102257.27
2019-02-16T05:26:42.644Z,102262.18
2019-02-16T05:27:47.563Z,102256.95
2019-02-16T05:28:52.500Z,102264.42
2019-02-16T05:29:57.408Z,102263.55
2019-02-16T05:31:02.324Z,102265.80
2019-02-16T05:32:07.301Z,102273.66
2019-02-16T05:33:12.298Z,102277.23
2019-02-16T05:34:17.558Z,102270.25
2019-02-16T05:35:22.844Z,102267.61
2019-02-16T05:36:28.125Z,102267.61
2019-02-16T05:37:33.057Z,102269.38
2019-02-16T05:38:38.238Z,102263.23
2019-02-16T05:39:43.201Z,102269.84
2019-02-16T05:40:48.163Z,102263.23
2019-02-16T05:41:53.103Z,102263.78
2019-02-16T05:42:58.167Z,102259.81
2019-02-16T05:44:03.155Z,102261.14
2019-02-16T05:45:08.379Z,102265.94
2019-02-16T05:46:13.916Z,102259.41
2019-02-16T05:47:18.899Z,102262.92
2019-02-16T05:48:23.821Z,102262.52
2019-02-16T05:49:29.411Z,102258.64
2019-02-16T05:50:34.425Z,102261.73
2019-02-16T05:51:39.317Z,102263.52
2019-02-16T05:52:53.763Z,102261.33
2019-02-16T05:53:51.139Z,102262.70
2019-02-16T05:54:56.354Z,102257.52
2019-02-16T05:56:01.378Z,102257.97
2019-02-16T05:57:06.340Z,102257.97
2019-02-16T05:58:11.238Z,102260.20
2019-02-16T05:59:16.219Z,102260.70
2019-02-16T06:00:23.739Z,102259.43
2019-02-16T06:01:28.842Z,102259.89
2019-02-16T06:02:33.784Z,102261.20
2019-02-16T06:03:38.740Z,102259.97
2019-02-16T06:04:43.677Z,102259.02
2019-02-16T06:05:48.600Z,102256.02
2019-02-16T06:06:53.679Z,102262.62
2019-02-16T06:07:58.686Z,102260.48
2019-02-16T06:09:05.187Z,102260.48
2019-02-16T06:10:10.313Z,102264.91
2019-02-16T06:11:15.557Z,102265.85
2019-02-16T06:12:20.563Z,102265.91
2019-02-16T06:13:25.727Z,102268.95
2019-02-16T06:14:30.668Z,102265.91
2019-02-16T06:15:35.925Z,102265.91
2019-02-16T06:16:41.088Z,102265.05
2019-02-16T06:17:46.015Z,102264.18
2019-02-16T06:18:51.073Z,102259.44
2019-02-16T06:19:56.038Z,102260.36
2019-02-16T06:21:01.918Z,102268.69
2019-02-16T06:22:07.052Z,102259.12
2019-02-16T06:23:12.024Z,102266.59
2019-02-16T06:24:17.288Z,102266.18
2019-02-16T06:25:22.402Z,102267.09
2019-02-16T06:26:27.297Z,102264.91
2019-02-16T06:27:32.380Z,102268.05
2019-02-16T06:28:37.463Z,102263.67
2019-02-16T06:29:42.476Z,102263.67
2019-02-16T06:30:47.306Z,102265.91
2019-02-16T06:31:52.578Z,102272.14
2019-02-16T06:32:57.891Z,102276.11
2019-02-16T06:34:02.882Z,102273.06
2019-02-16T06:35:22.704Z,102275.30
2019-02-16T06:36:31.467Z,102277.94
2019-02-16T06:37:36.409Z,102277.94
2019-02-16T06:38:41.352Z,102273.16
2019-02-16T06:39:46.673Z,102276.72
2019-02-16T06:40:51.733Z,102276.72
2019-02-16T06:41:56.726Z,102280.27
2019-02-16T06:43:01.689Z,102286.88
2019-02-16T06:44:06.738Z,102286.05
2019-02-16T06:45:11.641Z,102285.64
2019-02-16T06:46:16.516Z,102288.28
2019-02-16T06:47:21.446Z,102290.05
2019-02-16T06:48:26.383Z,102293.16
2019-02-16T06:49:31.369Z,102295.34
2019-02-16T06:50:37.177Z,102292.30
2019-02-16T06:51:42.309Z,102300.63
2019-02-16T06:52:47.612Z,102291.42
2019-02-16T06:53:52.622Z,102287.47
2019-02-16T06:54:57.961Z,102291.42
2019-02-16T06:56:16.055Z,102288.78
2019-02-16T06:57:29.136Z,102288.33
2019-02-16T06:58:34.143Z,102291.92
2019-02-16T06:59:39.091Z,102291.92
2019-02-16T07:00:44.124Z,102293.74
2019-02-16T07:01:49.040Z,102296.38
2019-02-16T07:02:54.013Z,102293.74
2019-02-16T07:03:58.997Z,102297.25
2019-02-16T07:05:04.387Z,102299.89
2019-02-16T07:06:09.295Z,102296.79
2019-02-16T07:07:14.192Z,102291.51
2019-02-16T07:08:19.696Z,102285.77
2019-02-16T07:09:24.669Z,102292.38
2019-02-16T07:10:29.576Z,102292.38
2019-02-16T07:11:34.667Z,102302.48
2019-02-16T07:12:39.632Z,102302.48
2019-02-16T07:13:45.067Z,102302.86
2019-02-16T07:14:50.091Z,102305.50
2019-02-16T07:16:12.583Z,102305.50
2019-02-16T07:17:24.816Z,102308.14
2019-02-16T07:18:37.340Z,102309.86
2019-02-16T07:19:49.164Z,102309.86
2019-02-16T07:20:54.158Z,102305.91
2019-02-16T07:21:59.386Z,102302.39
2019-02-16T07:23:04.398Z,102308.55
2019-02-16T07:24:09.919Z,102312.50
2019-02-16T07:25:15.206Z,102314.23
2019-02-16T07:26:20.392Z,102310.64
2019-02-16T07:27:25.472Z,102315.41
2019-02-16T07:28:30.500Z,102317.65
2019-02-16T07:29:35.415Z,102319.38
2019-02-16T07:30:40.665Z,102314.96
2019-02-16T07:31:45.858Z,102319.33
2019-02-16T07:32:50.921Z,102320.65
2019-02-16T07:33:56.505Z,102315.77
2019-02-16T07:35:01.703Z,102322.33
2019-02-16T07:36:06.706Z,102318.36
2019-02-16T07:37:12.075Z,102323.64
2019-02-16T07:38:17.190Z,102322.70
2019-02-16T07:39:22.733Z,102324.02
2019-02-16T07:40:27.767Z,102322.65
2019-02-16T07:41:32.730Z,102319.06
2019-02-16T07:42:51.523Z,102320.78
2019-02-16T07:44:24.732Z,102328.25
2019-02-16T07:45:39.160Z,102336.59
2019-02-16T07:46:54.988Z,102329.98
2019-02-16T07:48:12.518Z,102333.95
2019-02-16T07:49:32.499Z,102333.54
2019-02-16T07:50:48.343Z,102330.44
2019-02-16T07:52:11.341Z,102333.00
2019-02-16T07:53:31.864Z,102330.84
2019-02-16T07:54:49.410Z,102333.95
2019-02-16T07:55:59.807Z,102339.60
2019-02-16T07:57:26.711Z,102338.23
2019-02-16T07:58:36.442Z,102341.28
2019-02-16T08:00:06.892Z,102343.42
2019-02-16T08:01:39.341Z,102346.02
2019-02-16T08:02:57.365Z,102342.52
2019-02-16T08:04:27.485Z,102343.70
2019-02-16T08:05:39.715Z,102341.06
2019-02-16T08:07:06.622Z,102341.47
2019-02-16T08:08:26.507Z,102339.60
2019-02-16T08:09:52.705Z,102338.69
2019-02-16T08:11:15.619Z,102339.47
2019-02-16T08:12:57.755Z,102338.09
2019-02-16T08:14:25.372Z,102339.33
2019-02-16T08:15:50.679Z,102342.78
2019-02-16T08:17:04.460Z,102340.14
2019-02-16T08:18:28.455Z,102339.23
2019-02-16T08:19:51.171Z,102338.73
2019-02-16T08:21:15.142Z,102342.19
2019-02-16T08:22:29.418Z,102335.96
2019-02-16T08:23:53.768Z,102336.77
2019-02-16T08:25:17.249Z,102335.77
2019-02-16T08:26:39.964Z,102327.79
2019-02-16T08:27:55.618Z,102329.43
2019-02-16T08:29:18.455Z,102327.16
2019-02-16T08:30:41.028Z,102333.66
2019-02-16T08:31:53.081Z,102334.03
2019-02-16T08:33:02.823Z,102333.98
2019-02-16T08:34:26.784Z,102333.89
2019-02-16T08:35:39.756Z,102333.38
2019-02-16T08:36:52.959Z,102331.52
2019-02-16T08:38:15.816Z,102330.97
2019-02-16T08:39:31.986Z,102331.78
2019-02-16T08:40:44.578Z,102327.41
2019-02-16T08:41:57.199Z,102334.69
2019-02-16T08:43:13.505Z,102333.69
2019-02-16T08:44:24.182Z,102334.46
2019-02-16T08:45:50.895Z,102330.44
2019-02-16T08:47:13.887Z,102336.91
2019-02-16T08:48:40.780Z,102329.38
2019-02-16T08:50:04.700Z,102331.02
2019-02-16T08:51:31.794Z,102326.10
2019-02-16T08:53:05.251Z,102328.23
2019-02-16T08:54:29.207Z,102326.45
2019-02-16T08:55:47.098Z,102321.88
2019-02-16T08:57:20.365Z,102322.71
2019-02-16T08:58:37.428Z,102323.52
2019-02-16T09:00:01.413Z,102323.83
2019-02-16T09:01:27.438Z,102317.63
2019-02-16T09:02:41.248Z,102314.89
2019-02-16T09:04:17.339Z,102317.94
2019-02-16T09:05:30.752Z,102325.33
2019-02-16T09:07:03.687Z,102321.62
2019-02-16T09:08:42.742Z,102324.66
2019-02-16T09:10:12.722Z,102317.13
2019-02-16T09:11:41.089Z,102313.94
2019-02-16T09:13:06.112Z,102312.47
2019-02-16T09:14:26.489Z,102305.80
2019-02-16T09:15:48.341Z,102315.83
2019-02-16T09:17:09.100Z,102314.41
2019-02-16T09:18:28.997Z,102309.53
2019-02-16T09:19:43.857Z,102312.02
2019-02-16T09:20:56.438Z,102316.80
2019-02-16T09:22:20.376Z,102308.31
2019-02-16T09:23:58.667Z,102316.50
2019-02-16T09:25:02.144Z,102311.98
2019-02-16T09:26:41.617Z,102312.75
2019-02-16T09:27:58.192Z,102312.70
2019-02-16T09:29:28.453Z,102311.69
2019-02-16T09:30:58.456Z,102303.74
2019-02-16T09:32:21.211Z,102304.55
2019-02-16T09:33:33.378Z,102310.20
2019-02-16T09:34:56.538Z,102309.29
2019-02-16T09:36:10.193Z,102314.03
2019-02-16T09:37:35.949Z,102313.05
2019-02-16T09:38:59.055Z,102308.06
2019-02-16T09:40:22.389Z,102308.83
2019-02-16T09:41:42.670Z,102320.53
2019-02-16T09:42:56.652Z,102319.12
2019-02-16T09:44:15.063Z,102321.30
2019-02-16T09:45:51.428Z,102315.09
2019-02-16T09:47:12.899Z,102312.34
2019-02-16T09:48:25.756Z,102311.88
2019-02-16T09:49:40.117Z,102315.80
2019-02-16T09:50:59.081Z,102318.35
2019-02-16T09:52:23.039Z,102327.55
2019-02-16T09:53:52.815Z,102323.38
2019-02-16T09:55:25.941Z,102324.54
2019-02-16T09:56:44.696Z,102323.92
2019-02-16T09:58:01.921Z,102324.30
2019-02-16T09:59:29.531Z,102323.77
2019-02-16T10:00:40.738Z,102326.78
2019-02-16T10:02:10.663Z,102331.93
2019-02-16T10:03:37.955Z,102327.03
2019-02-16T10:05:14.067Z,102329.13
2019-02-16T10:06:28.162Z,102325.95
2019-02-16T10:07:50.907Z,102324.07
2019-02-16T10:09:05.924Z,102327.52
2019-02-16T10:10:39.300Z,102321.27
2019-02-16T10:11:50.481Z,102330.47
2019-02-16T10:13:19.878Z,102329.95
2019-02-16T10:14:46.908Z,102328.56
2019-02-16T10:16:20.144Z,102326.28
2019-02-16T10:17:33.780Z,102336.81
2019-02-16T10:19:03.650Z,102330.96
2019-02-16T10:20:27.641Z,102334.41
2019-02-16T10:21:57.347Z,102334.72
2019-02-16T10:23:17.549Z,102341.58
2019-02-16T10:24:39.942Z,102343.27
2019-02-16T10:26:06.672Z,102333.62
2019-02-16T10:27:18.364Z,102337.28
2019-02-16T10:28:45.939Z,102342.03
2019-02-16T10:30:02.176Z,102348.49
2019-02-16T10:31:25.264Z,102340.55
2019-02-16T10:32:41.221Z,102344.00
2019-02-16T10:33:59.710Z,102345.16
2019-02-16T10:35:23.963Z,102340.62
2019-02-16T10:36:36.518Z,102346.16
2019-02-16T10:38:03.480Z,102344.28
2019-02-16T10:39:21.974Z,102342.79
2019-02-16T10:40:46.088Z,102343.03
2019-02-16T10:42:12.456Z,102337.09
2019-02-16T10:43:35.810Z,102337.09
2019-02-16T10:44:46.059Z,102335.21
2019-02-16T10:46:09.154Z,102342.64
2019-02-16T10:47:32.408Z,102333.75
2019-02-16T10:48:56.378Z,102334.52
2019-02-16T10:50:18.197Z,102334.52
2019-02-16T10:51:38.881Z,102336.61
2019-02-16T10:53:05.069Z,102334.75
2019-02-16T10:54:31.935Z,102338.63
2019-02-16T10:55:53.832Z,102338.10
2019-02-16T10:57:30.164Z,102335.75
2019-02-16T10:58:44.786Z,102328.09
2019-02-16T11:00:07.750Z,102334.16
2019-02-16T11:01:25.999Z,102328.79
2019-02-16T11:02:53.610Z,102329.48
2019-02-16T11:04:08.500Z,102329.38
2019-02-16T11:05:31.555Z,102331.97
2019-02-16T11:06:47.695Z,102307.10
2019-02-16T11:08:11.647Z,102326.80
2019-02-16T11:09:23.998Z,102328.05
2019-02-16T11:10:45.704Z,102313.00
2019-02-16T11:12:12.737Z,102313.00
2019-02-16T11:13:24.912Z,102318.36
2019-02-16T11:14:49.352Z,102314.28
2019-02-16T11:16:11.959Z,102315.03
2019-02-16T11:17:55.827Z,102309.59
2019-02-16T11:19:19.958Z,102305.98
2019-02-16T11:20:53.443Z,102306.77
2019-02-16T11:22:13.399Z,102308.45
2019-02-16T11:23:33.116Z,102303.94
2019-02-16T11:24:56.298Z,102302.05
2019-02-16T11:26:11.567Z,102302.27
2019-02-16T11:27:34.721Z,102302.27
2019-02-16T11:29:11.165Z,102299.05
2019-02-16T11:30:45.076Z,102302.00
2019-02-16T11:31:58.753Z,102304.41
2019-02-16T11:33:38.297Z,102305.56
2019-02-16T11:34:56.014Z,102302.83
2019-02-16T11:36:14.055Z,102305.21
2019-02-16T11:37:39.997Z,102307.62
2019-02-16T11:39:03.300Z,102299.48
2019-02-16T11:40:13.676Z,102301.49
2019-02-16T11:41:24.165Z,102305.30
2019-02-16T11:42:42.125Z,102304.36
2019-02-16T11:43:57.119Z,102295.83
2019-02-16T11:45:20.237Z,102300.95
2019-02-16T11:46:36.677Z,102296.80
2019-02-16T11:48:00.776Z,102291.34
2019-02-16T11:49:25.222Z,102296.11
2019-02-16T11:50:58.493Z,102285.78
2019-02-16T11:52:34.586Z,102284.34
2019-02-16T11:53:55.704Z,102285.48
2019-02-16T11:55:12.944Z,102279.63
2019-02-16T11:56:37.301Z,102282.29
2019-02-16T11:57:48.701Z,102288.83
2019-02-16T11:59:15.383Z,102277.73
2019-02-16T12:00:43.387Z,102280.67
2019-02-16T12:02:06.261Z,102272.81
2019-02-16T12:03:35.032Z,102277.69
2019-02-16T12:04:46.727Z,102277.69
2019-02-16T12:05:58.103Z,102283.68
2019-02-16T12:07:13.487Z,102282.70
2019-02-16T12:08:36.514Z,102282.53
2019-02-16T12:09:49.457Z,102280.27
2019-02-16T12:11:15.872Z,102274.19
2019-02-16T12:12:38.982Z,102274.97
2019-02-16T12:14:01.890Z,102268.61
2019-02-16T12:15:32.263Z,102278.98
2019-02-16T12:17:08.483Z,102278.80
2019-02-16T12:18:28.369Z,102272.44
2019-02-16T12:19:58.322Z,102275.77
2019-02-16T12:21:25.444Z,102275.97
2019-02-16T12:22:38.305Z,102269.13
2019-02-16T12:24:02.311Z,102265.90
2019-02-16T12:25:25.793Z,102267.98
2019-02-16T12:26:49.816Z,102269.62
2019-02-16T12:28:23.109Z,102262.50
2019-02-16T12:29:49.910Z,102259.66
2019-02-16T12:31:21.404Z,102261.16
2019-02-16T12:32:35.949Z,102257.09
2019-02-16T12:34:09.088Z,102254.63
2019-02-16T12:35:33.370Z,102256.63
2019-02-16T12:36:49.967Z,102251.47
2019-02-16T12:37:59.931Z,102252.25
2019-02-16T12:39:11.142Z,102244.08
2019-02-16T12:40:22.572Z,102247.41
2019-02-16T12:42:02.290Z,102241.42
2019-02-16T12:43:25.130Z,102239.89
2019-02-16T12:44:45.882Z,102242.83
2019-02-16T12:46:08.482Z,102244.08
2019-02-16T12:47:31.570Z,102249.76
2019-02-16T12:48:47.110Z,102233.24
2019-02-16T12:49:59.485Z,102234.84
2019-02-16T12:51:20.692Z,102233.59
2019-02-16T12:52:43.680Z,102240.24
2019-02-16T12:53:58.711Z,102239.26
2019-02-16T12:55:25.652Z,102238.34
2019-02-16T12:56:55.550Z,102239.27
2019-02-16T12:58:06.625Z,102236.67
2019-02-16T12:59:49.173Z,102236.19
2019-02-16T13:01:02.461Z,102236.38
2019-02-16T13:02:29.409Z,102239.69
2019-02-16T13:03:43.625Z,102237.41
2019-02-16T13:04:57.051Z,102231.77
2019-02-16T13:06:33.307Z,102229.75
2019-02-16T13:07:43.786Z,102232.34
2019-02-16T13:08:59.735Z,102231.92
2019-02-16T13:10:22.890Z,102233.05
2019-02-16T13:11:45.995Z,102232.25
2019-02-16T13:13:07.491Z,102233.77
2019-02-16T13:14:22.188Z,102235.06
2019-02-16T13:15:58.302Z,102238.38
2019-02-16T13:17:22.586Z,102236.45
2019-02-16T13:18:33.689Z,102233.11
2019-02-16T13:20:00.988Z,102231.00
2019-02-16T13:21:18.741Z,102229.45
2019-02-16T13:22:35.661Z,102236.38
2019-02-16T13:23:55.628Z,102229.13
2019-02-16T13:25:31.390Z,102224.05
2019-02-16T13:27:07.321Z,102226.55
2019-02-16T13:28:24.132Z,102219.16
2019-02-16T13:29:46.722Z,102221.64
2019-02-16T13:31:14.076Z,102220.09
2019-02-16T13:32:29.197Z,102223.50
2019-02-16T13:33:56.385Z,102223.41
2019-02-16T13:35:26.155Z,102215.77
2019-02-16T13:36:41.268Z,102215.19
2019-02-16T13:37:59.323Z,102213.64
2019-02-16T13:39:24.935Z,102217.05
2019-02-16T13:40:48.873Z,102211.72
2019-02-16T13:42:28.409Z,102214.77
2019-02-16T13:43:52.834Z,102213.22
2019-02-16T13:45:03.686Z,102220.14